createdAt,value
2019-03-21T00:02:11.169Z,4.09
2019-03-21T00:04:40.972Z,4.07
2019-03-21T00:07:09.595Z,4.03
2019-03-21T00:09:38.163Z,4.02
2019-03-21T00:12:13.465Z,4.00
2019-03-21T00:15:03.073Z,3.97
2019-03-21T00:17:40.877Z,3.95
2019-03-21T00:20:14.633Z,3.92
2019-03-21T00:22:43.196Z,3.92
2019-03-21T00:25:20.528Z,3.93
2019-03-21T00:27:49.019Z,3.93
2019-03-21T00:30:22.787Z,3.95
2019-03-21T00:32:51.764Z,3.94
2019-03-21T00:35:20.315Z,3.91
2019-03-21T00:37:49.347Z,3.89
2019-03-21T00:40:29.406Z,3.86
2019-03-21T00:42:59.931Z,3.83
2019-03-21T00:45:29.377Z,3.79
2019-03-21T00:47:58.240Z,3.75
2019-03-21T00:50:30.473Z,3.72
2019-03-21T00:52:58.947Z,3.67
2019-03-21T00:55:33.254Z,3.62
2019-03-21T00:58:02.710Z,3.53
2019-03-21T01:00:46.021Z,3.49
2019-03-21T01:03:14.969Z,3.45
2019-03-21T01:05:43.840Z,3.41
2019-03-21T01:08:12.311Z,3.38
2019-03-21T01:10:40.845Z,3.35
2019-03-21T01:13:09.385Z,3.35
2019-03-21T01:15:37.850Z,3.42
2019-03-21T01:18:06.464Z,3.42
2019-03-21T01:20:34.932Z,3.43
2019-03-21T01:23:03.408Z,3.54
2019-03-21T01:25:43.964Z,3.60
2019-03-21T01:28:12.437Z,3.65
2019-03-21T01:30:40.903Z,3.73
2019-03-21T01:33:09.435Z,3.79
2019-03-21T01:35:39.239Z,3.84
2019-03-21T01:38:07.850Z,3.90
2019-03-21T01:40:48.067Z,3.94
2019-03-21T01:43:16.598Z,4.00
2019-03-21T01:45:45.061Z,4.05
2019-03-21T01:48:13.534Z,4.04
2019-03-21T01:50:43.042Z,4.03
2019-03-21T01:53:11.517Z,3.99
2019-03-21T01:55:39.980Z,3.99
2019-03-21T01:58:08.513Z,3.94
2019-03-21T02:00:42.840Z,3.89
2019-03-21T02:03:11.540Z,3.86
2019-03-21T02:05:40.000Z,3.91
2019-03-21T02:08:08.462Z,3.95
2019-03-21T02:10:36.951Z,3.97
2019-03-21T02:13:05.496Z,3.99
2019-03-21T02:15:34.973Z,3.99
2019-03-21T02:18:04.776Z,3.98
2019-03-21T02:20:33.457Z,4.05
2019-03-21T02:23:01.920Z,4.07
2019-03-21T02:25:33.208Z,4.08
2019-03-21T02:28:01.796Z,4.10
2019-03-21T02:30:41.580Z,4.12
2019-03-21T02:33:35.565Z,4.17
2019-03-21T02:36:07.641Z,4.20
2019-03-21T02:38:36.093Z,4.16
2019-03-21T02:41:10.623Z,4.23
2019-03-21T02:43:39.516Z,4.27
2019-03-21T02:46:08.028Z,4.27
2019-03-21T02:48:36.483Z,4.28
2019-03-21T02:51:06.462Z,4.27
2019-03-21T02:53:34.918Z,4.27
2019-03-21T02:56:05.254Z,4.26
2019-03-21T02:58:33.733Z,4.26
2019-03-21T03:01:03.423Z,4.27
2019-03-21T03:03:31.882Z,4.28
2019-03-21T03:06:00.396Z,4.30
2019-03-21T03:08:28.944Z,4.31
2019-03-21T03:11:00.347Z,4.29
2019-03-21T03:13:28.801Z,4.35
2019-03-21T03:15:57.281Z,4.35
2019-03-21T03:18:26.215Z,4.40
2019-03-21T03:20:54.684Z,4.43
2019-03-21T03:23:23.286Z,4.48
2019-03-21T03:25:51.882Z,4.48
2019-03-21T03:28:32.549Z,4.49
2019-03-21T03:31:01.057Z,4.51
2019-03-21T03:33:29.578Z,4.53
2019-03-21T03:35:58.192Z,4.54
2019-03-21T03:38:26.735Z,4.55
2019-03-21T03:40:57.806Z,4.52
2019-03-21T03:43:26.404Z,4.45
2019-03-21T03:45:54.883Z,4.45
2019-03-21T03:48:23.431Z,4.51
2019-03-21T03:50:51.913Z,4.51
2019-03-21T03:53:20.378Z,4.49
2019-03-21T03:55:48.864Z,4.49
2019-03-21T03:58:23.199Z,4.50
2019-03-21T04:00:51.733Z,4.52
2019-03-21T04:03:20.337Z,4.54
2019-03-21T04:05:48.962Z,4.51
2019-03-21T04:08:17.723Z,4.58
2019-03-21T04:10:48.545Z,4.60
2019-03-21T04:13:17.073Z,4.63
2019-03-21T04:15:52.578Z,4.66
2019-03-21T04:18:17.456Z,4.70
2019-03-21T04:20:55.350Z,4.75
2019-03-21T04:23:24.268Z,4.79
2019-03-21T04:25:55.822Z,4.85
2019-03-21T04:28:24.279Z,4.85
2019-03-21T04:30:52.804Z,4.89
2019-03-21T04:33:22.867Z,4.92
2019-03-21T04:35:51.714Z,4.95
2019-03-21T04:38:20.270Z,4.97
2019-03-21T04:40:48.750Z,4.98
2019-03-21T04:43:17.228Z,4.99
2019-03-21T04:45:45.858Z,4.99
2019-03-21T04:48:14.312Z,5.00
2019-03-21T04:50:43.273Z,5.02
2019-03-21T04:53:11.725Z,5.01
2019-03-21T04:55:40.452Z,5.02
2019-03-21T04:58:08.929Z,5.00
2019-03-21T05:00:42.586Z,4.99
2019-03-21T05:03:13.705Z,4.95
2019-03-21T05:05:42.245Z,4.92
2019-03-21T05:08:10.753Z,4.89
2019-03-21T05:10:39.213Z,4.84
2019-03-21T05:13:07.692Z,4.79
2019-03-21T05:15:47.009Z,4.79
2019-03-21T05:18:27.857Z,4.80
2019-03-21T05:20:56.861Z,4.80
2019-03-21T05:23:25.433Z,4.82
2019-03-21T05:25:53.915Z,4.82
2019-03-21T05:28:22.413Z,4.83
2019-03-21T05:31:02.559Z,4.85
2019-03-21T05:33:31.043Z,4.88
2019-03-21T05:35:59.512Z,4.96
2019-03-21T05:38:30.657Z,5.03
2019-03-21T05:40:59.192Z,5.08
2019-03-21T05:43:47.446Z,5.13
2019-03-21T05:46:26.113Z,5.18
2019-03-21T05:48:47.174Z,5.21
2019-03-21T05:51:15.727Z,5.25
2019-03-21T05:53:45.188Z,5.31
2019-03-21T05:56:13.654Z,5.37
2019-03-21T05:58:42.158Z,5.44
2019-03-21T06:01:12.256Z,5.49
2019-03-21T06:03:54.294Z,5.53
2019-03-21T06:06:47.117Z,5.59
2019-03-21T06:09:18.869Z,5.63
2019-03-21T06:11:50.617Z,5.69
2019-03-21T06:14:19.125Z,5.72
2019-03-21T06:16:47.659Z,5.77
2019-03-21T06:19:19.209Z,5.79
2019-03-21T06:21:53.928Z,5.83
2019-03-21T06:24:42.300Z,5.89
2019-03-21T06:27:30.265Z,5.98
2019-03-21T06:29:58.878Z,6.06
2019-03-21T06:32:28.079Z,6.16
2019-03-21T06:34:57.528Z,6.25
2019-03-21T06:37:28.592Z,6.35
2019-03-21T06:39:57.073Z,6.43
2019-03-21T06:42:25.715Z,6.52
2019-03-21T06:44:54.255Z,6.59
2019-03-21T06:47:22.785Z,6.64
2019-03-21T06:49:51.301Z,6.70
2019-03-21T06:52:19.758Z,6.78
2019-03-21T06:54:48.268Z,6.83
2019-03-21T06:57:16.860Z,6.90
2019-03-21T06:59:45.372Z,6.98
2019-03-21T07:02:13.969Z,7.07
2019-03-21T07:04:42.452Z,7.16
2019-03-21T07:07:10.917Z,7.20
2019-03-21T07:09:41.368Z,7.27
2019-03-21T07:12:09.965Z,7.37
2019-03-21T07:14:38.577Z,7.41
2019-03-21T07:17:08.181Z,7.47
2019-03-21T07:19:36.690Z,7.53
2019-03-21T07:22:05.198Z,7.61
2019-03-21T07:24:33.725Z,7.69
2019-03-21T07:27:02.264Z,7.81
2019-03-21T07:29:30.812Z,7.88
2019-03-21T07:31:59.349Z,7.92
2019-03-21T07:34:27.825Z,8.03
2019-03-21T07:36:56.366Z,8.16
2019-03-21T07:39:24.875Z,8.26
2019-03-21T07:41:53.325Z,8.39
2019-03-21T07:44:21.907Z,8.47
2019-03-21T07:46:50.505Z,8.47
2019-03-21T07:49:18.962Z,8.54
2019-03-21T07:51:47.442Z,8.58
2019-03-21T07:54:15.906Z,8.61
2019-03-21T07:56:44.442Z,8.68
2019-03-21T07:59:12.896Z,8.84
2019-03-21T08:01:41.366Z,8.97
2019-03-21T08:04:09.832Z,9.09
2019-03-21T08:06:38.342Z,9.18
2019-03-21T08:09:07.858Z,9.19
2019-03-21T08:11:36.423Z,9.25
2019-03-21T08:14:05.139Z,9.25
2019-03-21T08:16:33.654Z,9.34
2019-03-21T08:19:03.104Z,9.48
2019-03-21T08:21:31.897Z,9.45
2019-03-21T08:24:00.390Z,9.50
2019-03-21T08:26:28.878Z,9.59
2019-03-21T08:28:57.351Z,9.70
2019-03-21T08:31:25.898Z,9.73
2019-03-21T08:33:54.411Z,9.80
2019-03-21T08:36:22.912Z,9.82
2019-03-21T08:38:51.423Z,9.90
2019-03-21T08:41:19.948Z,9.95
2019-03-21T08:43:48.436Z,9.99
2019-03-21T08:46:17.019Z,10.07
2019-03-21T08:48:45.522Z,10.19
2019-03-21T08:51:15.574Z,10.28
2019-03-21T08:53:44.041Z,10.40
2019-03-21T08:56:12.615Z,10.38
2019-03-21T08:58:41.217Z,10.30
2019-03-21T09:01:09.780Z,10.34
2019-03-21T09:03:38.243Z,10.36
2019-03-21T09:06:06.880Z,10.46
2019-03-21T09:08:35.437Z,10.51
2019-03-21T09:11:04.061Z,10.58
2019-03-21T09:13:38.281Z,10.70
2019-03-21T09:16:06.837Z,10.77
2019-03-21T09:18:35.318Z,10.97
2019-03-21T09:21:04.009Z,11.03
2019-03-21T09:23:32.482Z,11.08
2019-03-21T09:26:01.014Z,11.23
2019-03-21T09:28:29.464Z,11.35
2019-03-21T09:30:57.987Z,11.41
2019-03-21T09:33:26.454Z,11.58
2019-03-21T09:35:54.938Z,11.67
2019-03-21T09:38:23.410Z,11.61
2019-03-21T09:40:51.897Z,11.70
2019-03-21T09:43:20.369Z,11.81
2019-03-21T09:45:48.943Z,11.92
2019-03-21T09:48:17.413Z,12.04
2019-03-21T09:50:45.947Z,12.02
2019-03-21T09:53:16.088Z,12.15
2019-03-21T09:55:44.564Z,12.25
2019-03-21T09:58:13.198Z,12.39
2019-03-21T10:00:41.657Z,12.43
2019-03-21T10:03:10.214Z,12.43
2019-03-21T10:05:38.678Z,12.37
2019-03-21T10:08:07.240Z,12.27
2019-03-21T10:10:35.877Z,12.28
2019-03-21T10:13:05.532Z,12.22
2019-03-21T10:15:34.148Z,12.23
2019-03-21T10:18:03.790Z,12.28
2019-03-21T10:20:32.324Z,12.30
2019-03-21T10:23:02.294Z,12.47
2019-03-21T10:25:30.817Z,12.45
2019-03-21T10:27:59.298Z,12.62
2019-03-21T10:30:30.823Z,12.94
2019-03-21T10:32:59.416Z,13.11
2019-03-21T10:35:27.870Z,13.28
2019-03-21T10:37:56.353Z,13.55
2019-03-21T10:40:24.842Z,13.45
2019-03-21T10:42:55.101Z,13.17
2019-03-21T10:45:23.574Z,12.92
2019-03-21T10:47:52.084Z,12.82
2019-03-21T10:50:29.516Z,12.87
2019-03-21T10:52:59.034Z,12.75
2019-03-21T10:55:27.502Z,12.84
2019-03-21T10:57:55.983Z,13.03
2019-03-21T11:00:24.593Z,13.15
2019-03-21T11:02:53.083Z,13.38
2019-03-21T11:05:23.221Z,13.15
2019-03-21T11:07:51.941Z,13.32
2019-03-21T11:10:20.597Z,13.17
2019-03-21T11:12:49.103Z,13.13
2019-03-21T11:15:17.718Z,12.88
2019-03-21T11:17:46.340Z,12.75
2019-03-21T11:20:17.861Z,12.76
2019-03-21T11:22:46.339Z,12.78
2019-03-21T11:25:14.834Z,12.89
2019-03-21T11:27:44.271Z,13.24
2019-03-21T11:30:16.473Z,13.32
2019-03-21T11:32:45.168Z,13.34
2019-03-21T11:35:13.634Z,13.34
2019-03-21T11:37:42.110Z,13.32
2019-03-21T11:40:10.711Z,13.43
2019-03-21T11:42:39.203Z,13.60
2019-03-21T11:45:08.196Z,13.58
2019-03-21T11:47:41.732Z,14.01
2019-03-21T11:50:07.332Z,14.28
2019-03-21T11:52:35.804Z,14.70
2019-03-21T11:55:06.814Z,15.46
2019-03-21T11:57:35.282Z,16.00
2019-03-21T12:00:06.861Z,16.48
2019-03-21T12:02:35.368Z,16.49
2019-03-21T12:05:06.433Z,16.20
2019-03-21T12:07:34.966Z,16.22
2019-03-21T12:10:04.142Z,16.55
2019-03-21T12:12:32.624Z,17.26
2019-03-21T12:15:01.133Z,17.25
2019-03-21T12:17:29.614Z,16.52
2019-03-21T12:19:58.097Z,16.03
2019-03-21T12:22:30.367Z,16.22
2019-03-21T12:24:56.804Z,15.73
2019-03-21T12:27:26.243Z,15.44
2019-03-21T12:29:54.819Z,15.47
2019-03-21T12:32:23.307Z,15.70
2019-03-21T12:34:51.826Z,15.50
2019-03-21T12:37:20.306Z,15.46
2019-03-21T12:39:48.783Z,15.32
2019-03-21T12:42:17.253Z,15.59
2019-03-21T12:44:45.845Z,15.22
2019-03-21T12:47:14.333Z,15.53
2019-03-21T12:49:42.906Z,16.58
2019-03-21T12:52:11.376Z,17.50
2019-03-21T12:54:41.880Z,17.40
2019-03-21T12:57:10.364Z,17.51
2019-03-21T12:59:38.899Z,18.69
2019-03-21T13:02:07.413Z,18.58
2019-03-21T13:04:35.922Z,18.04
2019-03-21T13:07:04.651Z,18.32
2019-03-21T13:09:33.234Z,17.98
2019-03-21T13:12:01.870Z,17.45
2019-03-21T13:14:30.396Z,17.01
2019-03-21T13:16:58.878Z,16.67
2019-03-21T13:19:27.394Z,15.92
2019-03-21T13:21:56.006Z,15.39
2019-03-21T13:24:24.489Z,14.86
2019-03-21T13:26:52.952Z,14.41
2019-03-21T13:29:21.457Z,14.14
2019-03-21T13:31:49.926Z,13.87
2019-03-21T13:34:18.455Z,13.65
2019-03-21T13:36:46.928Z,13.52
2019-03-21T13:39:15.652Z,13.36
2019-03-21T13:41:44.120Z,13.14
2019-03-21T13:44:13.686Z,13.09
2019-03-21T13:46:42.218Z,13.05
2019-03-21T13:49:10.715Z,13.09
2019-03-21T13:51:39.302Z,13.07
2019-03-21T13:54:08.883Z,13.10
2019-03-21T13:56:38.463Z,13.10
2019-03-21T13:59:07.181Z,13.17
2019-03-21T14:01:35.730Z,13.13
2019-03-21T14:04:04.321Z,13.17
2019-03-21T14:06:32.836Z,13.16
2019-03-21T14:09:01.380Z,13.15
2019-03-21T14:11:29.866Z,13.14
2019-03-21T14:13:58.326Z,13.11
2019-03-21T14:16:26.809Z,13.07
2019-03-21T14:18:55.365Z,13.02
2019-03-21T14:21:23.880Z,12.98
2019-03-21T14:23:52.360Z,13.02
2019-03-21T14:26:20.843Z,13.07
2019-03-21T14:28:49.309Z,13.03
2019-03-21T14:31:17.841Z,13.00
2019-03-21T14:33:46.311Z,13.00
2019-03-21T14:36:14.820Z,13.02
2019-03-21T14:38:43.331Z,13.03
2019-03-21T14:41:11.929Z,13.00
2019-03-21T14:43:40.400Z,13.08
2019-03-21T14:46:08.964Z,13.10
2019-03-21T14:48:37.551Z,13.11
2019-03-21T14:51:06.062Z,13.10
2019-03-21T14:53:34.594Z,13.08
2019-03-21T14:56:03.108Z,13.06
2019-03-21T14:58:31.576Z,13.00
2019-03-21T15:01:00.153Z,13.00
2019-03-21T15:03:28.616Z,13.01
2019-03-21T15:05:57.104Z,13.03
2019-03-21T15:08:25.667Z,13.02
2019-03-21T15:10:54.342Z,13.06
2019-03-21T15:13:22.844Z,13.07
2019-03-21T15:15:52.012Z,13.08
2019-03-21T15:18:20.477Z,13.04
2019-03-21T15:20:48.993Z,13.06
2019-03-21T15:23:17.460Z,13.01
2019-03-21T15:25:46.175Z,13.01
2019-03-21T15:28:14.737Z,12.94
2019-03-21T15:30:43.210Z,12.92
2019-03-21T15:33:11.824Z,12.96
2019-03-21T15:35:40.287Z,13.04
2019-03-21T15:38:08.866Z,13.06
2019-03-21T15:40:37.370Z,13.07
2019-03-21T15:43:05.890Z,13.07
2019-03-21T15:45:34.533Z,13.07
2019-03-21T15:48:03.020Z,13.05
2019-03-21T15:50:37.393Z,13.08
2019-03-21T15:53:06.167Z,13.06
2019-03-21T15:55:34.804Z,13.02
2019-03-21T15:58:03.556Z,12.98
2019-03-21T16:00:40.182Z,12.93
2019-03-21T16:03:10.147Z,12.93
2019-03-21T16:05:39.181Z,12.83
2019-03-21T16:08:09.192Z,12.77
2019-03-21T16:10:38.193Z,12.71
2019-03-21T16:13:06.807Z,12.66
2019-03-21T16:15:35.506Z,12.65
2019-03-21T16:18:04.372Z,12.62
2019-03-21T16:20:32.864Z,12.57
2019-03-21T16:23:01.398Z,12.48
2019-03-21T16:25:29.941Z,12.40
2019-03-21T16:27:58.566Z,12.35
2019-03-21T16:30:27.034Z,12.37
2019-03-21T16:32:55.570Z,12.32
2019-03-21T16:35:24.039Z,12.27
2019-03-21T16:37:52.572Z,12.19
2019-03-21T16:40:21.044Z,12.11
2019-03-21T16:42:49.593Z,12.03
2019-03-21T16:45:20.983Z,11.92
2019-03-21T16:47:48.404Z,11.81
2019-03-21T16:50:16.939Z,11.70
2019-03-21T16:52:45.429Z,11.62
2019-03-21T16:55:15.947Z,11.54
2019-03-21T16:57:44.505Z,11.46
2019-03-21T17:00:20.591Z,11.35
2019-03-21T17:02:49.078Z,11.28
2019-03-21T17:05:17.571Z,11.17
2019-03-21T17:07:47.008Z,11.09
2019-03-21T17:10:16.699Z,10.99
2019-03-21T17:12:45.419Z,10.90
2019-03-21T17:15:15.124Z,10.82
2019-03-21T17:17:43.789Z,10.72
2019-03-21T17:20:13.239Z,10.64
2019-03-21T17:22:41.739Z,10.53
2019-03-21T17:25:11.242Z,10.43
2019-03-21T17:27:39.726Z,10.34
2019-03-21T17:30:11.114Z,10.18
2019-03-21T17:32:39.722Z,10.03
2019-03-21T17:35:08.441Z,9.92
2019-03-21T17:37:36.988Z,9.86
2019-03-21T17:40:11.413Z,9.76
2019-03-21T17:42:39.899Z,9.72
2019-03-21T17:45:13.990Z,9.65
2019-03-21T17:47:42.532Z,9.68
2019-03-21T17:50:13.144Z,9.76
2019-03-21T17:52:41.698Z,9.83
2019-03-21T17:55:10.602Z,9.81
2019-03-21T17:57:39.135Z,9.80
2019-03-21T18:00:10.513Z,9.85
2019-03-21T18:02:39.319Z,9.88
2019-03-21T18:05:08.841Z,9.84
2019-03-21T18:07:37.308Z,9.79
2019-03-21T18:10:10.935Z,9.76
2019-03-21T18:12:39.419Z,9.76
2019-03-21T18:15:08.167Z,9.77
2019-03-21T18:17:36.637Z,9.75
2019-03-21T18:20:06.365Z,9.77
2019-03-21T18:22:34.824Z,9.76
2019-03-21T18:25:03.904Z,9.76
2019-03-21T18:27:32.390Z,9.73
2019-03-21T18:30:00.933Z,9.68
2019-03-21T18:32:29.490Z,9.61
2019-03-21T18:34:57.979Z,9.60
2019-03-21T18:37:26.429Z,9.58
2019-03-21T18:39:55.866Z,9.59
2019-03-21T18:42:24.330Z,9.63
2019-03-21T18:44:52.851Z,9.64
2019-03-21T18:47:21.436Z,9.63
2019-03-21T18:49:49.948Z,9.64
2019-03-21T18:52:18.430Z,9.65
2019-03-21T18:54:46.944Z,9.62
2019-03-21T18:57:15.414Z,9.59
2019-03-21T18:59:43.941Z,9.55
2019-03-21T19:02:12.445Z,9.44
2019-03-21T19:04:40.960Z,9.32
2019-03-21T19:07:09.426Z,9.20
2019-03-21T19:09:37.911Z,9.05
2019-03-21T19:12:06.370Z,8.87
2019-03-21T19:14:34.859Z,8.73
2019-03-21T19:17:04.329Z,8.64
2019-03-21T19:19:32.844Z,8.38
2019-03-21T19:22:01.323Z,8.04
2019-03-21T19:24:29.957Z,7.87
2019-03-21T19:26:58.624Z,7.79
2019-03-21T19:29:27.134Z,7.73
2019-03-21T19:31:55.604Z,7.68
2019-03-21T19:34:24.149Z,7.65
2019-03-21T19:36:52.611Z,7.62
2019-03-21T19:39:21.084Z,7.58
2019-03-21T19:41:49.546Z,7.54
2019-03-21T19:44:18.027Z,7.52
2019-03-21T19:46:46.687Z,7.53
2019-03-21T19:49:15.452Z,7.51
2019-03-21T19:51:44.008Z,7.50
2019-03-21T19:54:12.472Z,7.48
2019-03-21T19:56:41.880Z,7.46
2019-03-21T19:59:11.801Z,7.40
2019-03-21T20:01:40.274Z,7.29
2019-03-21T20:04:08.734Z,7.23
2019-03-21T20:06:37.230Z,7.15
2019-03-21T20:09:07.155Z,7.07
2019-03-21T20:11:35.634Z,6.95
2019-03-21T20:14:04.284Z,6.84
2019-03-21T20:16:32.774Z,6.78
2019-03-21T20:19:01.243Z,6.68
2019-03-21T20:21:47.141Z,6.55
2019-03-21T20:24:05.856Z,6.40
2019-03-21T20:26:34.359Z,6.28
2019-03-21T20:29:02.866Z,6.17
2019-03-21T20:31:31.339Z,6.12
2019-03-21T20:34:01.344Z,6.05
2019-03-21T20:36:29.826Z,5.99
2019-03-21T20:38:58.291Z,5.98
2019-03-21T20:41:26.796Z,6.01
2019-03-21T20:43:55.267Z,6.01
2019-03-21T20:46:23.833Z,6.07
2019-03-21T20:48:51.146Z,6.13
2019-03-21T20:51:19.769Z,6.11
2019-03-21T20:53:48.316Z,6.11
2019-03-21T20:56:16.837Z,6.08
2019-03-21T20:58:45.308Z,6.02
2019-03-21T21:01:13.867Z,5.95
2019-03-21T21:03:42.464Z,5.91
2019-03-21T21:06:10.963Z,6.00
2019-03-21T21:08:39.451Z,5.99
2019-03-21T21:11:08.134Z,5.87
2019-03-21T21:13:36.617Z,5.77
2019-03-21T21:16:06.155Z,5.70
2019-03-21T21:18:34.647Z,5.70
2019-03-21T21:21:03.163Z,5.65
2019-03-21T21:23:31.724Z,5.64
2019-03-21T21:26:05.581Z,5.64
2019-03-21T21:28:30.446Z,5.61
2019-03-21T21:30:58.926Z,5.59
2019-03-21T21:33:27.461Z,5.54
2019-03-21T21:35:55.959Z,5.49
2019-03-21T21:38:24.428Z,5.45
2019-03-21T21:40:52.918Z,5.42
2019-03-21T21:43:21.393Z,5.32
2019-03-21T21:45:49.903Z,5.30
2019-03-21T21:48:18.439Z,5.25
2019-03-21T21:50:46.907Z,5.19
2019-03-21T21:53:15.390Z,5.15
2019-03-21T21:55:43.949Z,5.11
2019-03-21T21:58:12.690Z,5.03
2019-03-21T22:00:41.193Z,5.11
2019-03-21T22:03:09.737Z,5.14
2019-03-21T22:05:38.204Z,5.14
2019-03-21T22:08:06.693Z,5.14
2019-03-21T22:10:35.171Z,5.14
2019-03-21T22:13:03.891Z,5.13
2019-03-21T22:15:32.361Z,5.13
2019-03-21T22:18:00.900Z,5.16
2019-03-21T22:20:29.416Z,5.05
2019-03-21T22:22:58.029Z,5.09
2019-03-21T22:25:26.570Z,5.10
2019-03-21T22:27:55.134Z,4.97
2019-03-21T22:30:23.603Z,5.05
2019-03-21T22:32:52.284Z,5.09
2019-03-21T22:35:20.870Z,4.95
2019-03-21T22:37:49.390Z,4.95
2019-03-21T22:40:19.133Z,4.85
2019-03-21T22:42:48.632Z,4.80
2019-03-21T22:45:20.133Z,4.69
2019-03-21T22:47:50.507Z,4.41
2019-03-21T22:50:19.159Z,4.41
2019-03-21T22:52:47.715Z,4.38
2019-03-21T22:55:16.415Z,4.35
2019-03-21T22:57:45.070Z,4.34
2019-03-21T23:00:22.969Z,4.33
2019-03-21T23:02:51.453Z,4.31
2019-03-21T23:05:20.830Z,4.31
2019-03-21T23:07:49.325Z,4.21
2019-03-21T23:10:17.936Z,4.06
2019-03-21T23:12:46.531Z,3.99
2019-03-21T23:15:15.341Z,4.01
2019-03-21T23:17:43.885Z,4.05
2019-03-21T23:20:14.887Z,4.03
2019-03-21T23:22:43.540Z,4.07
2019-03-21T23:25:13.155Z,4.05
2019-03-21T23:27:41.645Z,4.03
2019-03-21T23:30:15.603Z,4.01
2019-03-21T23:32:44.259Z,4.00
2019-03-21T23:35:12.869Z,3.97
2019-03-21T23:37:42.416Z,3.94
2019-03-21T23:40:15.279Z,3.83
2019-03-21T23:42:43.928Z,3.82
2019-03-21T23:45:13.646Z,3.85
2019-03-21T23:47:42.172Z,3.91
2019-03-21T23:50:14.908Z,3.89
2019-03-21T23:52:43.664Z,3.95
2019-03-21T23:55:12.471Z,4.02
2019-03-21T23:57:40.930Z,4.05
